Time;durP1;ratioP1;P1;durP2;ratioP2;P2;SDS_P1;SDS_P2;PMS_P1;PMS_P2;Temp;Humidity;BMP_temperature;BMP_pressure;BME280_temperature;BME280_humidity;BME280_pressure;Samples;Min_cycle;Max_cycle;Signal;HPM_P1;HPM_P2
2023/08/13 17:37:31;;;;;;;;;10.67;9.33;;;;;28.45;38.18;100878.94;146628;576;45021;-66
2023/08/13 17:40:29;;;;;;;;;5.67;5.33;;;;;28.42;38.92;100879.00;146606;601;48016;-66
2023/08/13 17:43:24;;;;;;;;;19.50;19.25;;;;;28.34;38.03;100867.56;146613;690;46021;-66
2023/08/13 17:46:19;;;;;;;;;7.67;5.33;;;;;28.29;39.34;100882.81;146601;611;47016;-65
2023/08/13 17:49:12;;;;;;;;;8.00;7.33;;;;;28.26;38.71;100880.19;146614;591;47020;-65
2023/08/13 17:52:14;;;;;;;;;10.33;9.00;;;;;27.56;38.89;100757.97;146611;607;46016;-65
2023/08/13 17:55:16;;;;;;;;;10.67;8.00;;;;;28.24;39.42;100882.88;146613;588;47012;-65
2023/08/13 17:58:09;;;;;;;;;7.67;6.33;;;;;28.22;39.12;100878.47;146607;599;47917;-65
2023/08/13 18:01:03;;;;;;;;;8.33;7.67;;;;;28.16;39.93;100881.25;146614;615;47008;-65
2023/08/13 18:04:02;;;;;;;;;8.00;8.00;;;;;28.14;39.60;100883.09;146605;564;47010;-65
2023/08/13 18:06:55;;;;;;;;;14.33;13.67;;;;;28.11;38.94;100888.47;146616;593;47008;-64
2023/08/13 18:09:49;;;;;;;;;8.33;8.33;;;;;28.08;39.35;100890.28;146604;587;46016;-62
2023/08/13 18:12:46;;;;;;;;;9.33;9.00;;;;;28.09;39.19;100893.81;146610;614;48008;-64
2023/08/13 18:15:52;;;;;;;;;9.33;8.33;;;;;28.09;39.00;100907.16;146610;598;47919;-63
2023/08/13 18:18:50;;;;;;;;;9.33;7.67;;;;;28.06;38.60;100905.41;146615;573;46021;-63
2023/08/13 18:21:45;;;;;;;;;7.00;6.00;;;;;28.04;39.33;100909.91;146607;641;47010;-63
2023/08/13 18:24:42;;;;;;;;;9.00;6.67;;;;;28.03;39.44;100912.59;146614;575;46021;-63
2023/08/13 18:27:37;;;;;;;;;10.00;9.00;;;;;28.00;38.98;100920.63;146611;571;46919;-64
2023/08/13 18:30:31;;;;;;;;;7.00;7.00;;;;;27.94;39.40;100916.28;146616;632;46020;-65
2023/08/13 18:33:26;;;;;;;;;8.00;7.00;;;;;27.92;37.01;100912.78;146611;573;46013;-64
2023/08/13 18:36:20;;;;;;;;;9.00;8.33;;;;;27.85;38.89;100924.44;146616;582;46008;-64
2023/08/13 18:39:16;;;;;;;;;8.67;8.67;;;;;27.75;39.49;100928.13;146610;626;46016;-63
2023/08/13 18:42:14;;;;;;;;;8.67;8.00;;;;;27.74;40.67;100926.38;146615;610;47008;-63
2023/08/13 18:45:28;;;;;;;;;9.00;8.00;;;;;26.85;40.02;100782.19;146612;594;46016;-64
2023/08/13 18:48:23;;;;;;;;;10.00;8.00;;;;;27.65;39.95;100938.06;146619;611;47008;-63
2023/08/13 18:51:19;;;;;;;;;12.00;9.67;;;;;27.58;39.97;100942.63;146608;639;47012;-64
2023/08/13 18:54:20;;;;;;;;;11.00;10.00;;;;;27.57;41.04;100946.19;146618;680;47008;-64
2023/08/13 18:57:12;;;;;;;;;11.33;10.67;;;;;27.56;40.44;100948.87;146607;617;47010;-65
2023/08/13 19:00:05;;;;;;;;;10.00;8.67;;;;;27.54;39.89;100951.56;146607;593;47042;-64
2023/08/13 19:03:02;;;;;;;;;8.00;8.00;;;;;27.44;40.57;100943.72;146612;595;46016;-68
2023/08/13 19:05:54;;;;;;;;;10.67;10.00;;;;;27.39;40.88;100938.47;146617;671;46008;-67
2023/08/13 19:08:51;;;;;;;;;7.00;7.00;;;;;27.41;40.72;100939.31;146607;688;46016;-68
2023/08/13 19:11:53;;;;;;;;;9.67;8.33;;;;;27.32;40.84;100950.09;146617;597;47008;-67
2023/08/13 19:14:48;;;;;;;;;7.00;7.00;;;;;27.16;40.75;100925.47;146609;565;47016;-67
2023/08/13 19:17:42;;;;;;;;;12.33;11.67;;;;;27.10;41.57;100926.44;146618;584;46021;-68
2023/08/13 19:20:34;;;;;;;;;9.67;9.67;;;;;27.12;40.58;100931.72;146607;596;46016;-66
2023/08/13 19:23:29;;;;;;;;;10.33;9.33;;;;;27.04;41.14;100937.16;146617;598;47008;-67
2023/08/13 19:26:22;;;;;;;;;10.33;10.33;;;;;26.99;40.45;100931.00;146609;645;48012;-67
2023/08/13 19:29:21;;;;;;;;;9.67;8.67;;;;;26.95;39.86;100929.31;146612;572;46020;-67
2023/08/13 19:32:16;;;;;;;;;7.67;6.00;;;;;26.90;40.23;100941.78;146611;571;48010;-67
2023/08/13 19:35:13;;;;;;;;;9.33;8.00;;;;;26.90;40.15;100933.78;146615;566;46021;-67
2023/08/13 19:38:23;;;;;;;;;9.00;8.00;;;;;26.91;40.84;100940.84;146610;609;47016;-67
2023/08/13 19:41:23;;;;;;;;;13.67;11.67;;;;;26.93;40.41;100939.06;146616;566;47009;-67
2023/08/13 19:44:21;;;;;;;;;9.67;9.67;;;;;26.96;40.38;100933.72;146605;639;46016;-67
2023/08/13 19:47:25;;;;;;;;;15.75;14.75;;;;;27.02;40.86;100927.44;146612;593;47020;-67
2023/08/13 19:50:32;;;;;;;;;7.00;7.00;;;;;26.14;40.05;100778.69;146601;654;47010;-67
2023/08/13 19:53:29;;;;;;;;;10.33;10.00;;;;;26.99;38.84;100933.66;146615;651;46020;-68
2023/08/13 19:56:21;;;;;;;;;8.00;8.00;;;;;26.93;39.51;100937.28;146605;617;46012;-67
2023/08/13 19:59:34;;;;;;;;;9.00;7.67;;;;;26.87;39.74;100945.34;146616;589;47008;-67
2023/08/13 20:02:45;;;;;;;;;12.00;11.75;;;;;26.83;40.72;100929.44;146611;671;46016;-67
2023/08/13 20:05:40;;;;;;;;;7.00;6.33;;;;;26.82;39.65;100938.31;146612;587;46020;-67
2023/08/13 20:08:34;;;;;;;;;12.67;11.33;;;;;26.73;40.59;100936.66;146610;609;47010;-67
2023/08/13 20:11:27;;;;;;;;;11.67;11.00;;;;;26.69;40.55;100935.78;146607;640;46009;-67
2023/08/13 20:14:26;;;;;;;;;12.00;10.00;;;;;26.75;41.03;100945.50;146602;629;47010;-67
2023/08/13 20:17:18;;;;;;;;;8.00;8.00;;;;;26.79;39.63;100938.34;146610;571;46008;-67
2023/08/13 20:20:15;;;;;;;;;5.00;5.00;;;;;26.71;38.43;100938.47;146609;586;46033;-67
2023/08/13 20:23:26;;;;;;;;;8.33;7.33;;;;;26.62;39.27;100944.75;146616;645;46020;-67
2023/08/13 20:26:18;;;;;;;;;12.25;11.25;;;;;26.58;39.74;100926.22;146609;581;47016;-67
2023/08/13 20:29:16;;;;;;;;;11.33;10.67;;;;;26.57;39.70;100932.41;146605;563;46020;-66
2023/08/13 20:32:11;;;;;;;;;7.00;6.00;;;;;26.53;39.15;100942.19;146609;581;46918;-66
2023/08/13 20:35:13;;;;;;;;;9.33;7.67;;;;;26.44;40.49;100943.13;146618;563;46027;-66
2023/08/13 20:38:08;;;;;;;;;8.67;7.00;;;;;26.45;40.82;100942.25;146611;574;47016;-66
2023/08/13 20:41:03;;;;;;;;;7.67;7.67;;;;;26.52;40.39;100926.28;146620;619;46008;-67
2023/08/13 20:44:00;;;;;;;;;11.00;9.00;;;;;26.55;40.77;100935.09;146610;627;48012;-67
2023/08/13 20:46:54;;;;;;;;;8.00;7.00;;;;;26.60;40.44;100937.69;146620;569;46008;-67
2023/08/13 20:49:49;;;;;;;;;9.33;8.00;;;;;26.61;40.89;100928.84;146609;667;47010;-68
2023/08/13 20:52:41;;;;;;;;;5.67;5.33;;;;;26.59;38.42;100928.84;146615;601;47020;-66
2023/08/13 20:55:47;;;;;;;;;6.67;6.67;;;;;26.41;39.15;100927.22;146611;602;47011;-66
2023/08/13 20:58:45;;;;;;;;;7.00;7.00;;;;;26.29;39.57;100931.78;146617;575;47020;-69
2023/08/13 21:01:55;;;;;;;;;6.33;5.00;;;;;26.24;39.98;100926.53;146610;599;46017;-67
2023/08/13 21:04:56;;;;;;;;;7.33;6.67;;;;;26.26;40.19;100935.34;146620;569;46020;-68
2023/08/13 21:07:50;;;;;;;;;5.00;4.33;;;;;26.27;39.00;100934.47;146608;659;47918;-66
2023/08/13 21:10:42;;;;;;;;;7.67;6.67;;;;;26.21;39.84;100940.72;146600;614;47009;-67
2023/08/13 21:13:38;;;;;;;;;4.33;4.33;;;;;26.18;39.62;100918.63;146612;627;46016;-67
2023/08/13 21:16:39;;;;;;;;;11.67;9.33;;;;;26.16;40.30;100928.37;146615;564;47008;-67
2023/08/13 21:19:32;;;;;;;;;6.00;6.00;;;;;26.17;40.13;100924.84;146610;611;47010;-67
2023/08/13 21:22:39;;;;;;;;;5.67;5.67;;;;;26.16;40.16;100923.94;146613;605;48008;-69
2023/08/13 21:25:42;;;;;;;;;7.67;7.33;;;;;26.15;39.29;100921.31;146610;628;46016;-68
2023/08/13 21:28:38;;;;;;;;;5.00;5.00;;;;;26.06;40.16;100924.94;146617;565;46020;-66
2023/08/13 21:31:30;;;;;;;;;8.67;8.67;;;;;26.03;40.76;100919.63;146612;570;47011;-67
2023/08/13 21:34:34;;;;;;;;;6.00;5.67;;;;;26.06;40.04;100916.94;146618;581;47008;-66
2023/08/13 21:37:26;;;;;;;;;8.00;8.00;;;;;26.03;40.63;100919.63;146614;635;46016;-66
2023/08/13 21:40:18;;;;;;;;;8.00;6.33;;;;;26.03;39.44;100916.97;146605;602;47021;-67
2023/08/13 21:43:13;;;;;;;;;7.00;7.00;;;;;26.00;40.14;100917.88;146607;619;47016;-68
2023/08/13 21:46:08;;;;;;;;;6.00;6.00;;;;;25.92;39.82;100913.53;146618;567;47020;-66
2023/08/13 21:49:04;;;;;;;;;7.00;6.00;;;;;25.78;40.39;100917.16;146614;577;46010;-66
2023/08/13 21:51:59;;;;;;;;;5.00;5.00;;;;;25.66;41.06;100917.25;146612;630;48008;-69
2023/08/13 21:54:51;;;;;;;;;6.00;5.00;;;;;25.60;41.17;100927.91;146608;565;46017;-68
2023/08/13 21:57:50;;;;;;;;;8.00;6.67;;;;;25.57;40.83;100915.53;146617;565;46020;-66
2023/08/13 22:00:53;;;;;;;;;4.00;4.00;;;;;25.56;41.39;100920.88;146610;639;47010;-68
2023/08/13 22:03:56;;;;;;;;;15.00;13.00;;;;;25.62;41.96;100923.50;146613;681;47008;-68
2023/08/13 22:06:54;;;;;;;;;8.33;7.67;;;;;25.72;41.70;100921.66;146603;593;47010;-68
2023/08/13 22:09:49;;;;;;;;;6.00;6.00;;;;;25.80;41.13;100931.31;146605;576;46021;-68
2023/08/13 22:12:45;;;;;;;;;9.67;9.00;;;;;25.85;41.39;100927.78;146612;605;47010;-71
2023/08/13 22:15:40;;;;;;;;;7.00;6.00;;;;;25.91;40.26;100923.28;146615;566;47021;-71
2023/08/13 22:18:33;;;;;;;;;7.00;7.00;;;;;25.96;40.91;100931.22;146611;654;46016;-70
2023/08/13 22:21:26;;;;;;;;;5.00;5.00;;;;;26.03;40.63;100932.94;146615;646;47008;-71
2023/08/13 22:24:18;;;;;;;;;8.00;8.00;;;;;26.04;40.65;100926.69;146611;687;47010;-70
2023/08/13 22:27:18;;;;;;;;;6.67;6.33;;;;;25.89;40.51;100937.47;146617;565;46008;-71
2023/08/13 22:30:20;;;;;;;;;7.67;7.67;;;;;25.78;40.72;100929.56;146611;579;47011;-71
2023/08/13 22:33:20;;;;;;;;;11.00;10.33;;;;;25.78;40.94;100918.94;146605;593;47016;-70
2023/08/13 22:36:15;;;;;;;;;7.00;7.00;;;;;25.85;41.09;100920.69;146604;657;47010;-68
2023/08/13 22:39:16;;;;;;;;;6.67;6.00;;;;;25.93;40.98;100917.97;146602;630;47008;-70
2023/08/13 22:42:27;;;;;;;;;7.33;6.00;;;;;25.98;40.78;100910.81;146611;583;46016;-69
2023/08/13 22:45:23;;;;;;;;;6.67;6.33;;;;;25.93;40.70;100915.31;146617;564;46009;-67
2023/08/13 22:48:20;;;;;;;;;9.00;7.00;;;;;25.90;41.47;100915.34;146610;607;47010;-70
2023/08/13 22:51:17;;;;;;;;;6.67;5.67;;;;;25.91;41.47;100906.47;146620;584;46008;-74
2023/08/13 22:54:14;;;;;;;;;6.00;6.00;;;;;25.90;41.00;100913.56;146608;571;46029;-76
2023/08/13 22:57:13;;;;;;;;;6.67;6.00;;;;;25.86;41.09;100917.16;146612;642;47020;-75
2023/08/13 23:00:07;;;;;;;;;8.33;6.00;;;;;25.81;41.08;100908.31;146612;626;46011;-74
2023/08/13 23:03:04;;;;;;;;;5.33;4.67;;;;;25.79;41.78;100897.69;146619;607;46020;-77
2023/08/13 23:06:01;;;;;;;;;8.67;7.33;;;;;25.79;41.77;100894.13;146612;633;46918;-76
2023/08/13 23:09:04;;;;;;;;;6.33;6.33;;;;;25.82;41.52;100894.13;146599;593;47008;-77
2023/08/13 23:11:57;;;;;;;;;7.00;6.00;;;;;25.84;41.48;100897.69;146612;596;46918;-77
2023/08/13 23:14:56;;;;;;;;;7.00;7.00;;;;;25.77;41.63;100902.13;146615;579;46021;-76
2023/08/13 23:17:53;;;;;;;;;5.67;5.67;;;;;25.63;41.90;100901.34;146609;565;47012;-77
2023/08/13 23:20:57;;;;;;;;;6.00;6.00;;;;;25.50;42.60;100884.63;146616;587;46020;-77
2023/08/13 23:23:55;;;;;;;;;5.00;4.67;;;;;25.47;42.47;100889.09;146612;609;46016;-77
2023/08/13 23:26:47;;;;;;;;;5.67;5.67;;;;;25.40;42.52;100892.69;146616;658;46043;-72
2023/08/13 23:29:40;;;;;;;;;7.00;6.00;;;;;25.35;42.33;100890.06;146611;583;47011;-72
2023/08/13 23:32:38;;;;;;;;;6.00;6.00;;;;;25.31;43.26;100880.34;146615;622;46043;-73
2023/08/13 23:35:42;;;;;;;;;7.00;6.00;;;;;25.32;42.87;100882.09;146612;616;47010;-71
2023/08/13 23:38:45;;;;;;;;;7.33;6.33;;;;;25.31;42.34;100875.06;146601;601;46916;-71
2023/08/13 23:41:52;;;;;;;;;8.00;6.67;;;;;25.29;42.69;100866.19;146611;613;46016;-76
2023/08/13 23:44:55;;;;;;;;;8.00;7.00;;;;;24.43;42.82;100713.78;146617;566;46021;-76
2023/08/13 23:47:59;;;;;;;;;6.67;6.00;;;;;25.41;42.24;100866.12;146612;582;46918;-77
2023/08/13 23:50:51;;;;;;;;;9.00;8.00;;;;;25.45;42.71;100875.84;146618;583;46034;-73
2023/08/13 23:53:54;;;;;;;;;9.00;6.00;;;;;25.44;42.63;100891.78;146613;577;46016;-72
2023/08/13 23:57:06;;;;;;;;;10.33;10.00;;;;;25.39;43.54;100874.97;146616;563;46020;-70
2023/08/13 23:59:58;;;;;;;;;8.00;7.00;;;;;25.42;43.86;100874.97;146604;591;47010;-71
